^^
Meteo Knjazevac Station Historical Data
 
Daily Summary for June 23, 2021 Units:  Metric    English   Both
Daily Weekly Monthly Yearly Custom
  Current: High: Low: Average:
Temperature: 19.6 °C 22.2 °C 19.6 °C 20.7 °C
Dew Point: 18.7 °C 20.4 °C 18.7 °C 19.6 °C
Humidity: 95% 95% 90% 93%
Wind Speed: 0km/h 3.2km/h 0km/h 1.1km/h
Wind Gust: 3.2km/h 9.7km/h - -
WindCalm - - West
Pressure: 1016.8 hPa 1016.8 hPa 1016.5 hPa -
Precipitation: 0 mm      
Historical Graphs
 
 
Tabular Data for June 23, 2021
Time Temperature Dew Point Pressure Wind Wind Speed Wind Gust Humidity Rainfall Rate (Hourly) solar Conditions
00:00 22.2 °C 20.4 °C 1016.5 hPa WNW 1.6 km/h 4.8 km/h 90% 0 mm 0 W/m2
00:10 22.1 °C 20.4 °C 1016.5 hPa Calm   3.2 km/h 90% 0 mm 0 W/m2
00:20 22 °C 20.3 °C 1016.5 hPa Calm   1.6 km/h 90% 0 mm 0 W/m2
00:30 21.9 °C 20.2 °C 1016.5 hPa Calm   1.6 km/h 90% 0 mm 0 W/m2
00:40 21.8 °C 20.3 °C 1016.5 hPa NW 3.2 km/h 3.2 km/h 91% 0 mm 0 W/m2
00:50 21.5 °C 19.9 °C 1016.5 hPa West 1.6 km/h 3.2 km/h 91% 0 mm 0 W/m2
01:00 21.3 °C 19.8 °C 1016.5 hPa Calm   3.2 km/h 91% 0 mm 0 W/m2
01:10 21.1 °C 19.9 °C 1016.5 hPa Calm   3.2 km/h 93% 0 mm 0 W/m2
01:20 20.9 °C 19.7 °C 1016.5 hPa SW 3.2 km/h 4.8 km/h 93% 0 mm 0 W/m2
01:30 20.6 °C 19.6 °C 1016.5 hPa WNW 3.2 km/h 6.4 km/h 94% 0 mm 0 W/m2
01:40 20.6 °C 19.8 °C 1016.8 hPa West 3.2 km/h 6.4 km/h 95% 0 mm 0 W/m2
01:50 20.5 °C 19.7 °C 1016.8 hPa West 1.6 km/h 9.7 km/h 95% 0 mm 0 W/m2
02:00 20.4 °C 19.6 °C 1016.8 hPa West 3.2 km/h 4.8 km/h 95% 0 mm 0 W/m2
02:10 20.3 °C 19.5 °C 1016.8 hPa Calm   4.8 km/h 95% 0 mm 0 W/m2
02:20 20.3 °C 19.5 °C 1016.8 hPa West 1.6 km/h 3.2 km/h 95% 0 mm 0 W/m2
02:30 20.2 °C 19.3 °C 1016.8 hPa WSW 1.6 km/h 4.8 km/h 95% 0 mm 0 W/m2
02:40 20 °C 19.2 °C 1016.8 hPa Calm   3.2 km/h 95% 0 mm 0 W/m2
02:50 20 °C 19.2 °C 1016.8 hPa Calm   1.6 km/h 95% 0 mm 0 W/m2
03:00 19.9 °C 19.1 °C 1016.5 hPa West 1.6 km/h 3.2 km/h 95% 0 mm 0 W/m2
03:10 19.7 °C 18.9 °C 1016.8 hPa Calm   1.6 km/h 95% 0 mm 0 W/m2
03:20 19.7 °C 18.9 °C 1016.8 hPa Calm   1.6 km/h 95% 0 mm 0 W/m2
03:30 19.6 °C 18.7 °C 1016.8 hPa Calm   3.2 km/h 95% 0 mm 0 W/m2
Knjazevac, Serbia
Compliments of Weather Underground - 2 mb